createdAt,value
2022-12-08T00:01:23.632Z,2.97
2022-12-08T00:03:52.300Z,2.28
2022-12-08T00:06:45.631Z,3.55
2022-12-08T00:09:23.269Z,4.22
2022-12-08T00:11:55.802Z,3.90
2022-12-08T00:14:34.659Z,3.55
2022-12-08T00:17:03.553Z,3.03
2022-12-08T00:19:31.484Z,3.40
2022-12-08T00:21:59.085Z,3.22
2022-12-08T00:24:32.419Z,2.58
2022-12-08T00:26:59.758Z,3.70
2022-12-08T00:29:27.658Z,2.38
2022-12-08T00:31:55.106Z,1.95
2022-12-08T00:34:22.917Z,2.22
2022-12-08T00:36:50.233Z,2.42
2022-12-08T00:39:18.440Z,2.67
2022-12-08T00:42:04.408Z,3.40
2022-12-08T00:44:31.975Z,1.98
2022-12-08T00:46:59.184Z,4.30
2022-12-08T00:49:26.871Z,4.50
2022-12-08T00:51:54.136Z,3.30
2022-12-08T00:54:23.147Z,3.20
2022-12-08T00:56:50.818Z,2.95
2022-12-08T00:59:19.391Z,5.95
2022-12-08T01:01:47.858Z,3.03
2022-12-08T01:04:17.672Z,4.43
2022-12-08T01:06:45.650Z,3.20
2022-12-08T01:09:14.461Z,3.63
2022-12-08T01:11:42.410Z,6.15
2022-12-08T01:14:10.068Z,2.85
2022-12-08T01:16:38.310Z,3.42
2022-12-08T01:19:05.840Z,4.07
2022-12-08T01:21:33.251Z,2.17
2022-12-08T01:24:01.433Z,2.85
2022-12-08T01:26:28.808Z,3.05
2022-12-08T01:28:56.420Z,2.63
2022-12-08T01:31:24.374Z,1.80
2022-12-08T01:33:52.075Z,2.30
2022-12-08T01:36:25.105Z,2.25
2022-12-08T01:38:54.209Z,2.20
2022-12-08T01:41:24.441Z,2.15
2022-12-08T01:44:04.725Z,2.88
2022-12-08T01:46:33.626Z,2.30
2022-12-08T01:49:04.300Z,1.90
2022-12-08T01:51:35.816Z,2.47
2022-12-08T01:54:05.782Z,2.05
2022-12-08T01:56:41.174Z,3.75
2022-12-08T01:59:11.817Z,2.88
2022-12-08T02:01:39.368Z,2.05
2022-12-08T02:04:07.150Z,3.22
2022-12-08T02:06:39.814Z,2.92
2022-12-08T02:09:08.385Z,2.78
2022-12-08T02:11:35.746Z,1.88
2022-12-08T02:14:08.393Z,3.03
2022-12-08T02:16:49.337Z,2.42
2022-12-08T02:19:53.844Z,2.60
2022-12-08T02:22:40.556Z,3.58
2022-12-08T02:25:20.650Z,5.03
2022-12-08T02:28:05.903Z,3.70
2022-12-08T02:30:45.506Z,4.03
2022-12-08T02:33:22.029Z,2.53
2022-12-08T02:35:54.228Z,3.60
2022-12-08T02:38:30.408Z,2.00
2022-12-08T02:41:17.058Z,2.03
2022-12-08T02:43:48.779Z,1.92
2022-12-08T02:48:52.044Z,1.83
2022-12-08T02:51:20.021Z,2.03
2022-12-08T02:53:48.696Z,2.90
2022-12-08T02:56:25.295Z,2.35
2022-12-08T02:59:01.535Z,2.20
2022-12-08T03:02:06.933Z,1.60
2022-12-08T03:05:11.643Z,1.75
2022-12-08T03:07:44.922Z,2.60
2022-12-08T03:10:30.293Z,1.95
2022-12-08T03:13:13.667Z,2.20
2022-12-08T03:15:43.121Z,1.40
2022-12-08T03:18:15.031Z,2.55
2022-12-08T03:20:43.819Z,2.38
2022-12-08T03:23:14.639Z,1.33
2022-12-08T03:26:02.025Z,1.70
2022-12-08T03:28:29.712Z,2.35
2022-12-08T03:31:02.807Z,3.15
2022-12-08T03:33:40.492Z,1.45
2022-12-08T03:36:09.647Z,2.35
2022-12-08T03:38:43.320Z,1.40
2022-12-08T03:41:20.719Z,1.80
2022-12-08T03:43:58.430Z,3.20
2022-12-08T03:48:55.122Z,2.92
2022-12-08T03:51:22.793Z,1.30
2022-12-08T03:53:50.988Z,2.05
2022-12-08T03:56:28.135Z,1.67
2022-12-08T03:58:56.072Z,1.90
2022-12-08T04:01:23.673Z,1.67
2022-12-08T04:03:51.621Z,0.93
2022-12-08T04:06:19.412Z,2.10
2022-12-08T04:08:47.057Z,1.45
2022-12-08T04:11:14.803Z,1.73
2022-12-08T04:13:43.993Z,5.18
2022-12-08T04:16:22.716Z,1.10
2022-12-08T04:18:50.834Z,1.88
2022-12-08T04:21:18.390Z,1.75
2022-12-08T04:23:46.864Z,1.75
2022-12-08T04:26:15.009Z,1.65
2022-12-08T04:28:42.851Z,2.65
2022-12-08T04:31:10.794Z,1.67
2022-12-08T04:33:38.417Z,1.85
2022-12-08T04:36:06.561Z,1.02
2022-12-08T04:38:34.805Z,1.15
2022-12-08T04:41:02.221Z,1.52
2022-12-08T04:43:30.219Z,2.97
2022-12-08T04:45:57.435Z,2.33
2022-12-08T04:48:26.049Z,1.63
2022-12-08T04:50:53.336Z,1.83
2022-12-08T04:53:21.388Z,1.60
2022-12-08T04:55:49.739Z,1.20
2022-12-08T04:58:19.173Z,1.67
2022-12-08T05:00:47.466Z,2.35
2022-12-08T05:03:15.677Z,1.85
2022-12-08T05:05:43.923Z,1.40
2022-12-08T05:08:11.704Z,1.85
2022-12-08T05:10:39.534Z,1.90
2022-12-08T05:13:07.144Z,2.20
2022-12-08T05:15:34.435Z,1.02
2022-12-08T05:18:02.014Z,1.52
2022-12-08T05:20:29.237Z,1.23
2022-12-08T05:22:56.932Z,1.35
2022-12-08T05:25:24.354Z,1.15
2022-12-08T05:27:55.270Z,1.58
2022-12-08T05:30:29.669Z,1.42
2022-12-08T05:32:57.335Z,2.25
2022-12-08T05:35:24.602Z,1.25
2022-12-08T05:37:54.022Z,1.30
2022-12-08T05:40:21.368Z,3.35
2022-12-08T05:42:48.841Z,2.95
2022-12-08T05:45:16.126Z,2.67
2022-12-08T05:47:43.685Z,1.55
2022-12-08T05:50:11.201Z,4.30
2022-12-08T05:52:38.794Z,1.45
2022-12-08T05:55:06.797Z,2.75
2022-12-08T05:57:34.301Z,1.70
2022-12-08T06:00:01.947Z,2.10
2022-12-08T06:02:39.820Z,1.60
2022-12-08T06:05:07.563Z,2.90
2022-12-08T06:07:35.044Z,1.52
2022-12-08T06:10:03.049Z,3.50
2022-12-08T06:12:30.968Z,1.95
2022-12-08T06:14:58.212Z,2.53
2022-12-08T06:17:25.770Z,2.13
2022-12-08T06:19:53.187Z,3.05
2022-12-08T06:22:20.856Z,2.85
2022-12-08T06:24:48.058Z,2.60
2022-12-08T06:27:15.792Z,3.72
2022-12-08T06:29:43.066Z,2.45
2022-12-08T06:32:11.840Z,2.95
2022-12-08T06:34:39.050Z,2.17
2022-12-08T06:37:06.657Z,3.08
2022-12-08T06:39:33.839Z,3.42
2022-12-08T06:42:19.909Z,3.25
2022-12-08T06:44:47.847Z,1.45
2022-12-08T06:47:15.306Z,3.30
2022-12-08T06:49:42.600Z,4.07
2022-12-08T06:52:10.196Z,11.20
2022-12-08T06:54:37.728Z,4.13
2022-12-08T06:57:05.197Z,2.58
2022-12-08T06:59:32.706Z,5.78
2022-12-08T07:02:00.289Z,3.17
2022-12-08T07:04:27.542Z,3.08
2022-12-08T07:06:55.055Z,3.80
2022-12-08T07:09:22.422Z,4.35
2022-12-08T07:11:50.152Z,1.83
2022-12-08T07:14:17.577Z,2.30
2022-12-08T07:16:45.140Z,4.53
2022-12-08T07:19:12.620Z,3.42
2022-12-08T07:21:40.774Z,4.43
2022-12-08T07:24:08.166Z,3.83
2022-12-08T07:26:36.079Z,3.75
2022-12-08T07:29:03.936Z,5.53
2022-12-08T07:31:31.592Z,2.50
2022-12-08T07:33:58.849Z,2.33
2022-12-08T07:36:26.776Z,1.92
2022-12-08T07:38:54.334Z,3.00
2022-12-08T07:41:24.834Z,2.70
2022-12-08T07:43:53.842Z,2.97
2022-12-08T07:46:23.750Z,2.35
2022-12-08T07:48:52.616Z,4.53
2022-12-08T07:51:20.501Z,1.77
2022-12-08T07:53:53.814Z,3.90
2022-12-08T07:56:22.587Z,3.30
2022-12-08T07:58:49.974Z,1.80
2022-12-08T08:01:30.397Z,2.78
2022-12-08T08:04:01.850Z,4.15
2022-12-08T08:06:29.330Z,2.17
2022-12-08T08:08:57.357Z,1.52
2022-12-08T08:11:25.092Z,2.50
2022-12-08T08:13:52.840Z,2.90
2022-12-08T08:16:21.257Z,1.98
2022-12-08T08:18:52.223Z,3.33
2022-12-08T08:24:08.523Z,2.28
2022-12-08T08:26:37.154Z,2.40
2022-12-08T08:29:04.361Z,2.80
2022-12-08T08:31:31.957Z,5.93
2022-12-08T08:34:05.097Z,5.28
2022-12-08T08:36:34.462Z,2.67
2022-12-08T08:39:02.131Z,3.70
2022-12-08T08:41:29.733Z,3.08
2022-12-08T08:43:57.019Z,2.72
2022-12-08T08:46:24.651Z,2.85
2022-12-08T08:48:52.075Z,3.35
2022-12-08T08:51:19.752Z,3.75
2022-12-08T08:53:47.410Z,5.20
2022-12-08T08:56:19.345Z,4.75
2022-12-08T08:58:48.806Z,5.30
2022-12-08T09:01:19.979Z,5.53
2022-12-08T09:06:17.606Z,6.47
2022-12-08T09:08:45.836Z,4.82
2022-12-08T09:11:13.910Z,6.13
2022-12-08T09:13:41.732Z,4.60
2022-12-08T09:16:11.549Z,3.92
2022-12-08T09:18:38.936Z,3.88
2022-12-08T09:21:08.730Z,7.57
2022-12-08T09:23:39.472Z,4.65
2022-12-08T09:26:07.892Z,5.38
2022-12-08T09:28:35.521Z,4.13
2022-12-08T09:31:03.840Z,4.88
2022-12-08T09:33:31.799Z,7.97
2022-12-08T09:36:03.949Z,5.35
2022-12-08T09:41:00.249Z,5.85
2022-12-08T09:43:51.701Z,3.65
2022-12-08T09:46:20.426Z,5.28
2022-12-08T09:48:56.129Z,7.43
2022-12-08T09:51:32.032Z,9.25
2022-12-08T09:54:12.718Z,8.18
2022-12-08T09:56:40.634Z,7.10
2022-12-08T09:59:29.331Z,5.38
2022-12-08T10:01:57.094Z,8.02
2022-12-08T10:04:31.626Z,6.40
2022-12-08T10:07:20.998Z,8.18
2022-12-08T10:10:39.451Z,6.25
2022-12-08T10:13:21.941Z,7.07
2022-12-08T10:16:26.548Z,7.80
2022-12-08T10:19:20.603Z,7.07
2022-12-08T10:21:48.718Z,8.50
2022-12-08T10:24:26.104Z,6.60
2022-12-08T10:26:55.439Z,5.88
2022-12-08T10:29:22.997Z,6.97
2022-12-08T10:31:50.232Z,10.93
2022-12-08T10:34:23.161Z,12.82
2022-12-08T10:36:53.832Z,9.75
2022-12-08T10:39:39.811Z,10.47
2022-12-08T10:42:16.001Z,8.75
2022-12-08T10:44:54.416Z,10.20
2022-12-08T10:47:24.611Z,12.35
2022-12-08T10:50:23.057Z,6.78
2022-12-08T10:53:10.839Z,9.60
2022-12-08T10:56:06.383Z,10.48
2022-12-08T10:58:36.302Z,15.35
2022-12-08T11:01:14.927Z,12.05
2022-12-08T11:03:49.995Z,11.38
2022-12-08T11:06:29.492Z,11.20
2022-12-08T11:08:59.906Z,8.80
2022-12-08T11:11:57.863Z,14.63
2022-12-08T11:14:33.149Z,10.82
2022-12-08T11:17:12.299Z,10.25
2022-12-08T11:24:42.716Z,11.70
2022-12-08T11:27:10.392Z,11.00
2022-12-08T11:29:37.606Z,12.40
2022-12-08T11:32:14.840Z,14.30
2022-12-08T11:34:57.499Z,14.45
2022-12-08T11:37:41.445Z,10.85
2022-12-08T11:40:22.150Z,13.63
2022-12-08T11:43:12.870Z,12.00
2022-12-08T11:45:41.890Z,11.77
2022-12-08T11:48:25.657Z,15.38
2022-12-08T11:51:02.642Z,13.90
2022-12-08T11:53:41.937Z,13.98
2022-12-08T11:56:43.906Z,11.20
2022-12-08T11:59:20.465Z,16.45
2022-12-08T12:01:48.628Z,16.17
2022-12-08T12:04:28.792Z,16.15
2022-12-08T12:07:10.789Z,16.42
2022-12-08T12:10:07.374Z,14.15
2022-12-08T12:12:39.851Z,13.75
2022-12-08T12:15:26.202Z,14.70
2022-12-08T12:18:16.494Z,15.02
2022-12-08T12:20:59.238Z,17.20
2022-12-08T12:23:40.787Z,15.18
2022-12-08T12:26:18.326Z,16.90
2022-12-08T12:29:00.808Z,18.50
2022-12-08T12:31:30.500Z,16.27
2022-12-08T12:34:11.717Z,19.65
2022-12-08T12:36:49.668Z,20.20
2022-12-08T12:39:20.138Z,16.48
2022-12-08T12:41:52.899Z,20.70
2022-12-08T12:44:29.239Z,19.23
2022-12-08T12:46:59.800Z,22.25
2022-12-08T12:49:39.735Z,16.23
2022-12-08T12:52:10.295Z,16.63
2022-12-08T12:55:05.261Z,19.85
2022-12-08T12:57:40.665Z,20.15
2022-12-08T13:00:18.028Z,19.63
2022-12-08T13:02:49.300Z,22.63
2022-12-08T13:05:19.531Z,17.27
2022-12-08T13:08:02.627Z,17.67
2022-12-08T13:10:33.354Z,20.58
2022-12-08T13:13:07.090Z,20.90
2022-12-08T13:15:37.904Z,19.10
2022-12-08T13:18:07.781Z,16.27
2022-12-08T13:20:46.160Z,20.85
2022-12-08T13:23:28.519Z,18.17
2022-12-08T13:26:20.765Z,20.60
2022-12-08T13:29:03.958Z,16.33
2022-12-08T13:31:41.665Z,19.33
2022-12-08T13:34:29.096Z,12.88
2022-12-08T13:37:11.544Z,17.80
2022-12-08T13:39:39.178Z,17.75
2022-12-08T13:42:12.520Z,18.27
2022-12-08T13:49:52.738Z,19.95
2022-12-08T13:57:32.851Z,22.35
2022-12-08T14:00:03.757Z,25.25
2022-12-08T14:02:47.674Z,26.98
2022-12-08T14:05:20.621Z,26.63
2022-12-08T14:08:02.720Z,28.40
2022-12-08T14:10:32.235Z,28.05
2022-12-08T14:13:03.434Z,31.55
2022-12-08T14:15:38.268Z,19.52
2022-12-08T14:18:21.521Z,29.13
2022-12-08T14:21:20.423Z,34.20
2022-12-08T14:23:48.218Z,31.23
2022-12-08T14:26:15.604Z,36.17
2022-12-08T14:28:45.144Z,32.88
2022-12-08T14:31:14.732Z,40.63
2022-12-08T14:33:43.198Z,38.65
2022-12-08T14:36:12.675Z,40.92
2022-12-08T14:38:40.319Z,39.88
2022-12-08T14:41:11.756Z,37.83
2022-12-08T14:43:41.088Z,39.47
2022-12-08T14:46:23.058Z,43.53
2022-12-08T14:48:50.856Z,40.40
2022-12-08T14:51:23.953Z,38.83
2022-12-08T14:54:08.821Z,39.88
2022-12-08T14:56:52.378Z,45.88
2022-12-08T14:59:32.246Z,53.88
2022-12-08T15:02:24.527Z,52.00
2022-12-08T15:04:58.082Z,54.20
2022-12-08T15:07:30.008Z,52.75
2022-12-08T15:10:15.861Z,52.53
2022-12-08T15:13:02.457Z,52.50
2022-12-08T15:15:31.518Z,50.75
2022-12-08T15:18:12.748Z,53.22
2022-12-08T15:20:48.404Z,56.05
2022-12-08T15:23:26.760Z,61.13
2022-12-08T15:25:55.682Z,59.30
2022-12-08T15:28:29.725Z,72.35
2022-12-08T15:30:58.991Z,76.50
2022-12-08T15:33:27.107Z,83.20
2022-12-08T15:35:54.772Z,77.07
2022-12-08T15:38:26.242Z,73.25
2022-12-08T15:40:54.610Z,73.47
2022-12-08T15:43:23.077Z,92.90
2022-12-08T15:45:59.019Z,68.95
2022-12-08T15:48:29.332Z,73.28
2022-12-08T15:50:57.388Z,75.97
2022-12-08T15:53:24.609Z,73.50
2022-12-08T15:58:56.614Z,77.30
2022-12-08T16:01:25.966Z,77.28
2022-12-08T16:09:38.835Z,75.43
2022-12-08T16:13:13.446Z,79.88
2022-12-08T16:15:49.942Z,73.90
2022-12-08T16:18:15.851Z,79.40
2022-12-08T16:21:08.045Z,85.15
2022-12-08T16:23:42.948Z,81.35
2022-12-08T16:26:44.288Z,75.22
2022-12-08T16:29:05.537Z,84.78
2022-12-08T16:31:33.504Z,81.10
2022-12-08T16:34:01.255Z,78.00
2022-12-08T16:36:28.600Z,81.45
2022-12-08T16:38:56.131Z,80.28
2022-12-08T16:41:41.860Z,69.97
2022-12-08T16:44:09.461Z,81.22
2022-12-08T16:46:37.223Z,77.18
2022-12-08T16:49:07.976Z,75.43
2022-12-08T16:51:35.442Z,75.13
2022-12-08T16:54:02.980Z,70.68
2022-12-08T16:56:32.972Z,64.03
2022-12-08T16:59:02.376Z,64.30
2022-12-08T17:01:30.275Z,74.15
2022-12-08T17:06:45.440Z,73.80
2022-12-08T17:09:13.108Z,59.92
2022-12-08T17:11:43.336Z,63.15
2022-12-08T17:14:14.930Z,50.95
2022-12-08T17:16:43.014Z,64.07
2022-12-08T17:19:13.343Z,58.13
2022-12-08T17:21:40.569Z,64.70
2022-12-08T17:24:08.193Z,58.97
2022-12-08T17:26:35.652Z,67.95
2022-12-08T17:29:04.361Z,63.22
2022-12-08T17:31:32.689Z,64.18
2022-12-08T17:34:05.855Z,59.08
2022-12-08T17:36:33.154Z,58.63
2022-12-08T17:39:01.266Z,66.75
2022-12-08T17:41:29.413Z,59.65
2022-12-08T17:43:57.296Z,58.95
2022-12-08T17:46:24.934Z,58.47
2022-12-08T17:48:52.838Z,54.95
2022-12-08T17:51:20.235Z,58.88
2022-12-08T17:53:47.882Z,57.70
2022-12-08T17:56:21.713Z,55.78
2022-12-08T17:58:54.190Z,64.38
2022-12-08T18:01:23.186Z,63.25
2022-12-08T18:03:51.131Z,63.30
2022-12-08T18:06:18.704Z,59.13
2022-12-08T18:08:46.860Z,63.05
2022-12-08T18:11:18.016Z,62.10
2022-12-08T18:13:47.185Z,60.58
2022-12-08T18:16:15.611Z,64.10
2022-12-08T18:18:43.335Z,67.80
2022-12-08T18:21:12.520Z,59.78
2022-12-08T18:23:42.434Z,55.88
2022-12-08T18:26:13.012Z,61.10
2022-12-08T18:28:41.085Z,60.78
2022-12-08T18:31:13.858Z,57.83
2022-12-08T18:33:43.633Z,54.05
2022-12-08T18:36:15.011Z,51.17
2022-12-08T18:38:42.852Z,54.60
2022-12-08T18:41:13.147Z,52.63
2022-12-08T18:43:40.895Z,47.97
2022-12-08T18:46:10.698Z,47.38
2022-12-08T18:48:41.994Z,51.72
2022-12-08T18:51:14.683Z,46.67
2022-12-08T18:53:42.717Z,45.83
2022-12-08T18:56:21.337Z,49.53
2022-12-08T18:58:48.915Z,42.42
2022-12-08T19:01:16.536Z,46.45
2022-12-08T19:03:58.503Z,48.38
2022-12-08T19:06:31.884Z,44.58
2022-12-08T19:08:59.496Z,44.72
2022-12-08T19:11:28.793Z,45.78
2022-12-08T19:13:57.134Z,43.55
2022-12-08T19:16:24.499Z,43.38
2022-12-08T19:18:52.113Z,45.42
2022-12-08T19:21:20.496Z,48.05
2022-12-08T19:23:48.057Z,47.30
2022-12-08T19:26:15.266Z,42.08
2022-12-08T19:28:43.074Z,46.40
2022-12-08T19:31:11.211Z,45.78
2022-12-08T19:33:39.474Z,52.15
2022-12-08T19:36:08.981Z,45.58
2022-12-08T19:38:56.549Z,46.40
2022-12-08T19:41:42.491Z,48.50
2022-12-08T19:44:38.586Z,50.88
2022-12-08T19:47:06.354Z,45.17
2022-12-08T19:49:34.020Z,44.13
2022-12-08T19:52:01.929Z,48.65
2022-12-08T19:54:29.614Z,49.53
2022-12-08T19:56:56.948Z,47.38
2022-12-08T19:59:27.846Z,49.88
2022-12-08T20:01:55.907Z,52.50
2022-12-08T20:04:25.241Z,52.42
2022-12-08T20:06:53.844Z,57.47
2022-12-08T20:09:22.226Z,51.75
2022-12-08T20:11:50.871Z,49.72
2022-12-08T20:14:18.565Z,53.53
2022-12-08T20:16:45.835Z,49.90
2022-12-08T20:19:13.348Z,47.90
2022-12-08T20:21:40.840Z,50.08
2022-12-08T20:24:08.590Z,47.05
2022-12-08T20:26:35.900Z,49.63
2022-12-08T20:29:03.710Z,44.65
2022-12-08T20:31:32.128Z,50.20
2022-12-08T20:34:00.247Z,42.72
2022-12-08T20:36:28.049Z,54.50
2022-12-08T20:38:56.209Z,51.83
2022-12-08T20:41:23.834Z,48.00
2022-12-08T20:43:52.433Z,52.53
2022-12-08T20:46:21.210Z,49.17
2022-12-08T20:48:49.155Z,49.65
2022-12-08T20:51:19.736Z,48.65
2022-12-08T20:53:47.652Z,45.75
2022-12-08T20:56:17.516Z,41.63
2022-12-08T20:58:46.166Z,50.30
2022-12-08T21:01:16.068Z,39.80
2022-12-08T21:03:45.423Z,43.80
2022-12-08T21:06:13.614Z,45.25
2022-12-08T21:08:42.871Z,44.10
2022-12-08T21:11:10.666Z,46.20
2022-12-08T21:13:39.048Z,45.67
2022-12-08T21:16:09.309Z,42.33
2022-12-08T21:18:39.621Z,46.13
2022-12-08T21:21:11.311Z,48.97
2022-12-08T21:23:40.516Z,47.13
2022-12-08T21:26:19.593Z,48.28
2022-12-08T21:28:47.594Z,52.50
2022-12-08T21:31:17.866Z,50.83
2022-12-08T21:33:45.882Z,52.72
2022-12-08T21:36:16.275Z,54.50
2022-12-08T21:38:45.063Z,61.67
2022-12-08T21:41:42.140Z,59.22
2022-12-08T21:44:12.255Z,60.05
2022-12-08T21:46:39.759Z,56.05
2022-12-08T21:49:07.830Z,56.17
2022-12-08T21:51:41.846Z,61.65
2022-12-08T21:54:16.680Z,58.55
2022-12-08T21:56:48.008Z,69.63
2022-12-08T21:59:16.708Z,62.60
2022-12-08T22:01:44.675Z,66.95
2022-12-08T22:04:16.077Z,68.78
2022-12-08T22:06:43.845Z,62.42
2022-12-08T22:09:13.610Z,58.20
2022-12-08T22:11:42.166Z,64.05
2022-12-08T22:14:14.340Z,57.08
2022-12-08T22:16:43.752Z,54.83
2022-12-08T22:19:12.521Z,56.22
2022-12-08T22:21:40.363Z,57.33
2022-12-08T22:24:08.632Z,57.90
2022-12-08T22:26:36.056Z,61.42
2022-12-08T22:29:04.199Z,58.22
2022-12-08T22:31:31.501Z,50.47
2022-12-08T22:33:59.709Z,57.10
2022-12-08T22:36:28.080Z,54.90
2022-12-08T22:38:56.793Z,55.78
2022-12-08T22:41:24.540Z,50.78
2022-12-08T22:43:52.415Z,54.63
2022-12-08T22:46:23.312Z,53.45
2022-12-08T22:48:52.996Z,56.95
2022-12-08T22:51:20.439Z,55.83
2022-12-08T22:53:48.645Z,55.72
2022-12-08T22:56:18.175Z,55.58
2022-12-08T22:58:46.563Z,82.95
2022-12-08T23:01:40.085Z,55.50
2022-12-08T23:04:11.334Z,53.58
2022-12-08T23:06:41.642Z,52.35
2022-12-08T23:09:09.268Z,56.55
2022-12-08T23:11:36.660Z,49.80
2022-12-08T23:14:04.378Z,52.97
2022-12-08T23:16:32.032Z,45.35
2022-12-08T23:18:59.713Z,48.17
2022-12-08T23:21:27.567Z,49.80
2022-12-08T23:23:55.151Z,58.45
2022-12-08T23:26:25.424Z,55.58
2022-12-08T23:28:53.190Z,51.85
2022-12-08T23:31:20.715Z,51.83
2022-12-08T23:33:48.917Z,54.00
2022-12-08T23:36:18.434Z,52.35
2022-12-08T23:38:46.846Z,52.08
2022-12-08T23:41:16.119Z,48.28
2022-12-08T23:43:46.774Z,50.67
2022-12-08T23:46:15.826Z,48.33
2022-12-08T23:48:44.217Z,50.15
2022-12-08T23:51:12.646Z,52.03
2022-12-08T23:53:40.651Z,53.85
2022-12-08T23:56:12.160Z,51.70
2022-12-08T23:58:41.087Z,50.97
